Westminster, CO (80035)

3:00 AM MST on February 10, 2016 (GMT -0700)
Shaw Heights | | Change Station
CLOSE
Current Station
Personal Weather Station
Location: Westminster, CO
Elevation: 5469 ft
Nearby Weather Stations

Elev 5469 ft 39.85 °N, 105.04 °W | Updated 7 minutes ago

Partly Cloudy
Partly Cloudy
43.7 °F
Feels Like 44 °F
N
2.7
Wind Variable Wind from ESE

Today
High -- | Low -- °F
--% Chance of Precip.
Yesterday
High -- | Low -- °F
Precip. -- in
Pressure 30.18 in
Visibility 10.0 miles
Clouds Clear
Windchill 44 °F
Dew Point 17 °F
Humidity 34%
Rainfall 0.00 in
Snow Depth Not available.
6:59 AM 5:29 PM
Waxing Crescent, 4% visible
METAR KBJC 100956Z AUTO 30019G25KT 10SM CLR 11/M13 A3018 RMK AO2
Pressure 30.18 in
Visibility 10.0 miles
Clouds Clear
Windchill 44 °F
Dew Point 17 °F
Humidity 34%
Rainfall 0.00 in
Snow Depth Not available.
6:59 AM 5:29 PM
Waxing Crescent, 4% visible
METAR KBJC 100956Z AUTO 30019G25KT 10SM CLR 11/M13 A3018 RMK AO2

10-Day Weather Forecast

Almanac

Astronomy

Feb. 10, 2016 Rise Set
Actual Time
Civil Twilight
Nautical Twilight
Astronomical Twilight
Moon
Length of Visible Light
Length of Day
Tomorrow will be .
, % of the Moon is Illuminated

Today's Extremes

State Highs State Lows

Community

WunderPhotos

Upload Photos

1,891,826 photos uploaded!

WunderBlog® & News

Nearby

Air Quality

  Air Quality AQ Index Pollutant
Not available.

Snow Depth

Station Depth Elevation

Earthquake Activity

City Distance Mag. Time & Date
Minimum magnitude displayed is 2.5.

Coastal Water Temperatures

Place Temperature

Stations

Nearby Weather Stations

Station Location Temp. Windchill Dew Point Humidity Wind Precip. Elev Updated Type
                   

Watches & Warnings

There are currently no watches in effect.